Wind From: 11-12-2017 06:00 Until: 12-12-2017 06:00 warning for: Wind Level: Orange info button

Power and phone distribution networks may be disrupted for relatively long periods., Roofs and chimneys can be damaged. , Tree branches may break. , Vehicles can be deported. , Traffic may be disrupted, particularly on secondary roads in forest areas. Limit your trips. , Limit your speed in highway driving, especially if you drive a vehicle or hitch sensitive to wind. , Do not go for walks in forests or along the coast., In town, be vigilant against possible falling objects., Do not work on roofs and do not touch any electrical line fallen on the ground., Store or secure sensitive objects to wind or likely to be damaged., Always install power generators outside buildings. 


Meteo18 Weather Cam more information Meteo18 Weather Cam


Thunder radar more information blitzortung!


Rain radar more information rain snow radar


Visit our other weather sites:

Template documentation
and downloads

And another site



Weather Underground History page Text

Daily Summary for May 23, 2017 Units:  English    Metric   Both
« Previous Day
Next Day »
Daily Weekly Monthly Yearly Custom
  High: Low: Average:
Temperature: 75.4 °F 53.1 °F 65.5 °F
Dew Point: 61.9 °F 51.6 °F 57.6 °F
Humidity: 96 % 52 % 77 %
Wind Speed: 9 mph 0 mph 1.9 mph
Wind Gust: 13 mph - -
Wind:- - West
Pressure: 30.3 in 30.1 in -
Precipitation: 0 in    
Historical Graphs
 
 
Tabular Data for May 23, 2017
Time Temperature Dew Point Pressure Wind Wind Speed Wind Gust Humidity Rainfall Rate (Hourly)
00:02 65.1 °F 57.7 °F 30.1 in WNW 1 mph 5 mph 77 % 0 in
00:07 64.9 °F 57.9 °F 30.1 in Calm   4 mph 78 % 0 in
00:12 64.9 °F 57.9 °F 30.1 in Calm   4 mph 78 % 0 in
00:17 64.6 °F 57.6 °F 30.1 in Calm   3 mph 78 % 0 in
00:22 64.4 °F 57.7 °F 30.1 in WNW 1 mph 3 mph 79 % 0 in
00:27 64.2 °F 57.6 °F 30.1 in Calm   3 mph 79 % 0 in
00:32 64.2 °F 57.6 °F 30.1 in WNW 1 mph 3 mph 79 % 0 in
00:37 64 °F 57.4 °F 30.1 in North 1 mph 3 mph 79 % 0 in
00:42 63.9 °F 57.6 °F 30.1 in WNW 1 mph 3 mph 80 % 0 in
00:52 63.7 °F 57.4 °F 30.1 in WNW 2 mph 3 mph 80 % 0 in
00:57 63.7 °F 57.4 °F 30.1 in WNW 1 mph 3 mph 80 % 0 in
01:02 63.5 °F 57.2 °F 30.1 in Calm   3 mph 80 % 0 in
01:07 63 °F 57 °F 30.1 in Calm   3 mph 81 % 0 in
01:12 62.4 °F 57.2 °F 30.1 in Calm   3 mph 83 % 0 in
01:17 62.4 °F 57.2 °F 30.1 in Calm   1 mph 83 % 0 in
01:22 62.2 °F 57 °F 30.1 in Calm   1 mph 83 % 0 in
01:32 61.7 °F 56.8 °F 30.1 in Calm   1 mph 84 % 0 in
01:42 61.2 °F 56.7 °F 30.1 in Calm     85 % 0 in
01:47 60.8 °F 56.3 °F 30.1 in Calm     85 % 0 in
01:52 60.6 °F 56.5 °F 30.1 in Calm     86 % 0 in
01:57 60.4 °F 56.3 °F 30.1 in Calm     86 % 0 in
02:02 60.6 °F 56.7 °F 30.1 in Calm     87 % 0 in
02:12 60.4 °F 56.5 °F 30.1 in Calm     87 % 0 in
02:17 60.4 °F 56.5 °F 30.1 in Calm     87 % 0 in
02:22 60.4 °F 56.5 °F 30.1 in WSW 2 mph   87 % 0 in
02:32 60.3 °F 56.3 °F 30.1 in SSW 1 mph 2 mph 87 % 0 in
02:37 60.1 °F 56.1 °F 30.1 in Calm   2 mph 87 % 0 in
02:47 59.5 °F 55.6 °F 30.1 in Calm   1 mph 87 % 0 in
02:52 59.2 °F 55.6 °F 30.1 in Calm   1 mph 88 % 0 in
02:57 58.8 °F 55.6 °F 30.1 in Calm   1 mph 89 % 0 in
03:02 58.6 °F 55.8 °F 30.1 in Calm   1 mph 90 % 0 in
03:12 58.6 °F 55.8 °F 30.1 in Calm   1 mph 90 % 0 in
03:17 58.5 °F 55.6 °F 30.1 in Calm     90 % 0 in
03:22 58.5 °F 55.6 °F 30.1 in Calm     90 % 0 in
03:27 58.3 °F 55.6 °F 30.1 in Calm   1 mph 91 % 0 in
03:32 57.9 °F 55.2 °F 30.1 in Calm   1 mph 91 % 0 in
03:42 57.4 °F 54.9 °F 30.1 in Calm   1 mph 91 % 0 in
03:47 57.4 °F 55 °F 30.1 in Calm   1 mph 92 % 0 in
03:52 57 °F 54.7 °F 30.1 in Calm   1 mph 92 % 0 in
04:02 56.7 °F 54.3 °F 30.1 in Calm   1 mph 92 % 0 in
04:07 56.1 °F 53.8 °F 30.1 in Calm   1 mph 92 % 0 in
04:12 55.9 °F 53.6 °F 30.1 in Calm   1 mph 92 % 0 in
04:17 55.8 °F 53.8 °F 30.1 in Calm   1 mph 93 % 0 in
04:22 55.8 °F 53.8 °F 30.1 in Calm   1 mph 93 % 0 in
04:27 55.6 °F 53.6 °F 30.1 in Calm   1 mph 93 % 0 in
04:32 55.6 °F 53.6 °F 30.1 in Calm   1 mph 93 % 0 in
04:37 55.2 °F 53.2 °F 30.1 in Calm   1 mph 93 % 0 in
04:42 55.2 °F 53.6 °F 30.1 in Calm   1 mph 94 % 0 in
04:47 54.7 °F 52.7 °F 30.1 in Calm   1 mph 93 % 0 in
04:52 54.7 °F 53.1 °F 30.1 in Calm   1 mph 94 % 0 in
04:57 54.7 °F 53.1 °F 30.1 in Calm   1 mph 94 % 0 in
05:02 54.5 °F 52.9 °F 30.1 in Calm   1 mph 94 % 0 in
05:12 54.5 °F 52.9 °F 30.1 in Calm     94 % 0 in
05:17 54.3 °F 52.7 °F 30.1 in Calm     94 % 0 in
05:22 54 °F 52.3 °F 30.1 in Calm     94 % 0 in
05:32 53.8 °F 52.3 °F 30.1 in Calm     95 % 0 in
05:42 54 °F 52.5 °F 30.1 in Calm   2 mph 95 % 0 in
05:47 54.1 °F 52.7 °F 30.1 in South 2 mph 2 mph 95 % 0 in
05:52 54 °F 52.5 °F 30.1 in Calm   2 mph 95 % 0 in
06:02 53.4 °F 52 °F 30.1 in SSE 1 mph 2 mph 95 % 0 in
06:07 53.2 °F 51.8 °F 30.1 in South 2 mph 2 mph 95 % 0 in
06:12 53.1 °F 51.6 °F 30.1 in Calm   2 mph 95 % 0 in
06:17 53.1 °F 51.6 °F 30.1 in Calm   2 mph 95 % 0 in
06:22 53.1 °F 51.6 °F 30.1 in Calm   2 mph 95 % 0 in
06:27 53.1 °F 52 °F 30.1 in Calm   2 mph 96 % 0 in
06:32 53.1 °F 51.6 °F 30.1 in Calm   2 mph 95 % 0 in
06:37 53.1 °F 52 °F 30.1 in Calm   1 mph 96 % 0 in
06:42 53.4 °F 52.3 °F 30.1 in Calm   1 mph 96 % 0 in
06:47 53.8 °F 52.7 °F 30.1 in Calm     96 % 0 in
06:52 53.8 °F 52.7 °F 30.1 in Calm     96 % 0 in
07:02 53.8 °F 52.7 °F 30.1 in Calm   1 mph 96 % 0 in
07:12 54.1 °F 53.1 °F 30.1 in Calm   1 mph 96 % 0 in
07:17 54.1 °F 53.1 °F 30.1 in Calm   1 mph 96 % 0 in
07:22 54.5 °F 53.4 °F 30.2 in Calm   1 mph 96 % 0 in
07:32 55.2 °F 54.1 °F 30.2 in South 1 mph 1 mph 96 % 0 in
07:42 56.5 °F 55.4 °F 30.2 in SSW 3 mph 3 mph 96 % 0 in
07:47 56.8 °F 55.8 °F 30.2 in SSW 3 mph 5 mph 96 % 0 in
07:52 57.4 °F 56.3 °F 30.2 in SW 2 mph 5 mph 96 % 0 in
07:57 57.7 °F 56.7 °F 30.2 in SW 2 mph 5 mph 96 % 0 in
08:02 58.5 °F 57 °F 30.2 in WSW 2 mph 5 mph 95 % 0 in
08:12 59.5 °F 57.7 °F 30.2 in SW 3 mph 5 mph 94 % 0 in
08:17 59.9 °F 57.9 °F 30.2 in South 2 mph 3 mph 93 % 0 in
08:22 60.3 °F 57.9 °F 30.2 in SW 3 mph 3 mph 92 % 0 in
08:32 61 °F 58.3 °F 30.2 in Calm   4 mph 91 % 0 in
08:42 61.5 °F 58.3 °F 30.2 in SE 2 mph 5 mph 89 % 0 in
08:47 62.1 °F 58.8 °F 30.2 in South 1 mph 5 mph 89 % 0 in
08:52 62.4 °F 59.2 °F 30.2 in South 1 mph 5 mph 89 % 0 in
08:57 63.1 °F 59.2 °F 30.2 in Calm   4 mph 87 % 0 in
09:02 63.3 °F 59 °F 30.2 in SSE 2 mph 4 mph 86 % 0 in
09:12 63.3 °F 59.4 °F 30.2 in SSW 2 mph 4 mph 87 % 0 in
09:22 63.5 °F 59.5 °F 30.2 in West 2 mph 5 mph 87 % 0 in
09:32 63.7 °F 59.4 °F 30.2 in SW 4 mph 7 mph 86 % 0 in
09:42 64 °F 59.7 °F 30.2 in SSW 4 mph 6 mph 86 % 0 in
09:47 63.9 °F 59.2 °F 30.2 in SW 4 mph 8 mph 85 % 0 in
09:52 63.9 °F 59.5 °F 30.2 in SSW 4 mph 8 mph 86 % 0 in
09:57 64.2 °F 59.5 °F 30.2 in SSW 5 mph 9 mph 85 % 0 in
10:02 64.2 °F 59.9 °F 30.2 in South 5 mph 9 mph 86 % 0 in
10:12 64.2 °F 59.5 °F 30.2 in SW 9 mph 9 mph 85 % 0 in
10:17 64.2 °F 59.9 °F 30.2 in SSW 8 mph 10 mph 86 % 0 in
10:22 64 °F 59.4 °F 30.2 in SSW 7 mph 10 mph 85 % 0 in
10:32 64.6 °F 59.9 °F 30.2 in SSW 8 mph 11 mph 85 % 0 in
10:42 64.9 °F 60.3 °F 30.2 in SW 6 mph 12 mph 85 % 0 in
10:52 64.8 °F 59.9 °F 30.2 in SSW 6 mph 12 mph 84 % 0 in
11:02 64.9 °F 59.7 °F 30.2 in SW 6 mph 13 mph 83 % 0 in
11:07 65.1 °F 60.1 °F 30.2 in SSW 5 mph 12 mph 84 % 0 in
11:12 65.5 °F 60.3 °F 30.2 in SSW 5 mph 12 mph 83 % 0 in
11:17 65.8 °F 60.6 °F 30.2 in SW 6 mph 12 mph 83 % 0 in
11:22 66.4 °F 61 °F 30.2 in West 3 mph 12 mph 83 % 0 in
11:32 66.7 °F 61 °F 30.2 in West 5 mph 10 mph 82 % 0 in
11:42 66.7 °F 60.8 °F 30.2 in South 6 mph 11 mph 81 % 0 in
11:52 67.6 °F 61.2 °F 30.2 in West 3 mph 11 mph 80 % 0 in
12:02 68.4 °F 61.5 °F 30.2 in West 4 mph 10 mph 79 % 0 in
12:12 69.3 °F 61.3 °F 30.2 in WSW 5 mph 11 mph 76 % 0 in
12:17 69.4 °F 61.5 °F 30.2 in West 2 mph 11 mph 76 % 0 in
12:22 69.4 °F 61.5 °F 30.2 in SSW 4 mph 11 mph 76 % 0 in
12:32 69.8 °F 61.9 °F 30.2 in West 3 mph 10 mph 76 % 0 in
12:42 70.2 °F 61.9 °F 30.2 in WNW 1 mph 10 mph 75 % 0 in
12:47 70.3 °F 61.3 °F 30.2 in NW 3 mph 10 mph 73 % 0 in
12:52 70 °F 61 °F 30.2 in WNW 2 mph 10 mph 73 % 0 in
13:02 70.9 °F 60.3 °F 30.2 in West 4 mph 8 mph 69 % 0 in
13:07 70.9 °F 60.6 °F 30.2 in WNW 5 mph 12 mph 70 % 0 in
13:17 71.8 °F 60.6 °F 30.2 in WSW 4 mph 12 mph 68 % 0 in
13:22 72.3 °F 61.2 °F 30.2 in West 3 mph 12 mph 68 % 0 in
13:27 72.7 °F 61.2 °F 30.2 in NW 1 mph 9 mph 67 % 0 in
13:32 72.5 °F 60.4 °F 30.2 in WNW 2 mph 9 mph 66 % 0 in
13:37 71.8 °F 59.4 °F 30.2 in Calm   9 mph 65 % 0 in
13:42 72.1 °F 61 °F 30.2 in WNW 3 mph 9 mph 68 % 0 in
13:47 72.7 °F 60.6 °F 30.2 in WSW 5 mph 8 mph 66 % 0 in
13:52 72.7 °F 60.3 °F 30.2 in WSW 7 mph 8 mph 65 % 0 in
13:57 72.3 °F 59.9 °F 30.2 in WSW 2 mph 9 mph 65 % 0 in
14:02 72.3 °F 60.8 °F 30.2 in West 2 mph 9 mph 67 % 0 in
14:12 72.7 °F 61.2 °F 30.2 in WSW 1 mph 9 mph 67 % 0 in
14:17 72.3 °F 60.3 °F 30.2 in NNE 2 mph 7 mph 66 % 0 in
14:22 72.7 °F 61.2 °F 30.2 in NNW 3 mph 7 mph 67 % 0 in
14:27 72.3 °F 60.8 °F 30.2 in WNW 1 mph 7 mph 67 % 0 in
14:32 72.7 °F 60.6 °F 30.2 in West 3 mph 7 mph 66 % 0 in
14:37 72.3 °F 60.3 °F 30.2 in WNW 4 mph 8 mph 66 % 0 in
14:42 72.3 °F 60.3 °F 30.2 in West 1 mph 8 mph 66 % 0 in
14:52 73.4 °F 59.2 °F 30.2 in SW 3 mph 7 mph 61 % 0 in
14:57 73.8 °F 59 °F 30.2 in SW 4 mph 10 mph 60 % 0 in
15:02 74.1 °F 61.2 °F 30.2 in WNW 3 mph 10 mph 64 % 0 in
15:12 74.1 °F 59.7 °F 30.2 in West 5 mph 8 mph 61 % 0 in
15:17 74.1 °F 59.7 °F 30.2 in SW 1 mph 11 mph 61 % 0 in
15:22 75 °F 60.6 °F 30.2 in WSW 1 mph 11 mph 61 % 0 in
15:27 75.4 °F 60.1 °F 30.2 in West 2 mph 9 mph 59 % 0 in
15:32 74.8 °F 60.4 °F 30.2 in NNW 1 mph 9 mph 61 % 0 in
15:37 74.5 °F 60.6 °F 30.2 in WNW 1 mph 6 mph 62 % 0 in
15:42 74.1 °F 60.3 °F 30.2 in WNW 5 mph 6 mph 62 % 0 in
15:47 73.6 °F 60.3 °F 30.2 in NW 3 mph 7 mph 63 % 0 in
15:52 73.2 °F 59.4 °F 30.2 in NW 4 mph 7 mph 62 % 0 in
15:57 73 °F 59.2 °F 30.2 in WNW 3 mph 9 mph 62 % 0 in
16:02 73.2 °F 59.9 °F 30.2 in NNE 3 mph 9 mph 63 % 0 in
16:07 73 °F 59.2 °F 30.2 in NNE 2 mph 6 mph 62 % 0 in
16:12 72.9 °F 59.9 °F 30.2 in West 1 mph 6 mph 64 % 0 in
16:17 72.5 °F 60.1 °F 30.2 in NW 2 mph 7 mph 65 % 0 in
16:22 72.9 °F 59.9 °F 30.2 in NNW 3 mph 7 mph 64 % 0 in
16:32 73.9 °F 61 °F 30.2 in NW 6 mph 8 mph 64 % 0 in
16:37 73.9 °F 59.2 °F 30.2 in WNW 2 mph 10 mph 60 % 0 in
16:42 74.7 °F 60.3 °F 30.2 in WSW 2 mph 10 mph 61 % 0 in
16:47 74.3 °F 60.4 °F 30.2 in WNW 1 mph 8 mph 62 % 0 in
16:52 74.5 °F 60.1 °F 30.2 in North 1 mph 8 mph 61 % 0 in
16:57 74.1 °F 60.3 °F 30.2 in NNW 2 mph 7 mph 62 % 0 in
17:02 74.5 °F 61 °F 30.2 in North 3 mph 7 mph 63 % 0 in
17:12 74.7 °F 61.2 °F 30.2 in North 4 mph 8 mph 63 % 0 in
17:17 74.5 °F 60.1 °F 30.2 in North 3 mph 9 mph 61 % 0 in
17:22 74.1 °F 59.7 °F 30.2 in North 6 mph 9 mph 61 % 0 in
17:27 74.5 °F 60.6 °F 30.2 in NW 2 mph 12 mph 62 % 0 in
17:32 74.7 °F 60.3 °F 30.2 in West 2 mph 12 mph 61 % 0 in
17:37 74.5 °F 59.7 °F 30.2 in NNW 3 mph 12 mph 60 % 0 in
17:42 74.5 °F 59.7 °F 30.2 in WNW 7 mph 12 mph 60 % 0 in
17:52 74.1 °F 58.5 °F 30.2 in NNW 3 mph 9 mph 58 % 0 in
17:57 74.1 °F 58.5 °F 30.2 in NW 1 mph 9 mph 58 % 0 in
18:02 74.5 °F 58.3 °F 30.2 in NE 3 mph 9 mph 57 % 0 in
18:07 74.5 °F 58.8 °F 30.2 in NW 2 mph 9 mph 58 % 0 in
18:12 74.5 °F 59.7 °F 30.2 in WNW 1 mph 9 mph 60 % 0 in
18:17 74.1 °F 58.8 °F 30.2 in NNW 4 mph 11 mph 59 % 0 in
18:22 73.9 °F 59.7 °F 30.2 in NNW 3 mph 11 mph 61 % 0 in
18:32 73.8 °F 59.9 °F 30.2 in WNW 1 mph 10 mph 62 % 0 in
18:37 73.8 °F 59 °F 30.2 in NNW 5 mph 10 mph 60 % 0 in
18:42 73.8 °F 59.9 °F 30.2 in NNW 5 mph 10 mph 62 % 0 in
18:47 73.9 °F 58.6 °F 30.2 in NW 4 mph 9 mph 59 % 0 in
18:52 73.8 °F 58.5 °F 30.2 in NNW 2 mph 9 mph 59 % 0 in
18:57 73.8 °F 58.1 °F 30.2 in NNW 4 mph 12 mph 58 % 0 in
19:02 73.6 °F 56.5 °F 30.2 in NW 3 mph 12 mph 55 % 0 in
19:07 73.2 °F 56.7 °F 30.2 in NW 2 mph 9 mph 56 % 0 in
19:12 73.2 °F 56.1 °F 30.2 in NW 3 mph 9 mph 55 % 0 in
19:17 73.2 °F 54.5 °F 30.2 in WNW 5 mph 8 mph 52 % 0 in
19:22 73.6 °F 55.4 °F 30.2 in NNW 3 mph 8 mph 53 % 0 in
19:32 72.9 °F 57.2 °F 30.2 in North 3 mph 8 mph 58 % 0 in
19:37 72.7 °F 57 °F 30.2 in NW 3 mph 7 mph 58 % 0 in
19:42 72.7 °F 57 °F 30.2 in WNW 1 mph 7 mph 58 % 0 in
19:52 72.9 °F 56.7 °F 30.2 in NNW 3 mph 5 mph 57 % 0 in
20:02 72.1 °F 57.6 °F 30.2 in NW 3 mph 5 mph 60 % 0 in
20:12 72 °F 58.3 °F 30.2 in NNW 2 mph 6 mph 62 % 0 in
20:17 72 °F 58.3 °F 30.2 in NW 1 mph 6 mph 62 % 0 in
20:22 72 °F 58.3 °F 30.2 in NNW 1 mph 6 mph 62 % 0 in
20:27 72 °F 58.3 °F 30.2 in NNW 1 mph 4 mph 62 % 0 in
20:32 72 °F 57.7 °F 30.2 in NW 3 mph 4 mph 61 % 0 in
20:37 72 °F 58.3 °F 30.2 in NNW 2 mph 5 mph 62 % 0 in
20:42 71.2 °F 57.9 °F 30.3 in NW 1 mph 5 mph 63 % 0 in
20:47 70.5 °F 58.1 °F 30.3 in WNW 1 mph 5 mph 65 % 0 in
20:57 69.6 °F 58.1 °F 30.3 in NNW 3 mph 3 mph 67 % 0 in
21:02 69.1 °F 58.1 °F 30.3 in NNW 2 mph 3 mph 68 % 0 in
21:07 68.5 °F 57.9 °F 30.3 in NNW 1 mph 4 mph 69 % 0 in
21:12 68.2 °F 58.1 °F 30.3 in NNW 1 mph 4 mph 70 % 0 in
21:17 67.8 °F 58.1 °F 30.3 in Calm   3 mph 71 % 0 in
21:22 67.5 °F 58.1 °F 30.3 in WNW 1 mph 3 mph 72 % 0 in
21:32 66.9 °F 57.6 °F 30.3 in Calm   2 mph 72 % 0 in
21:37 66.7 °F 57.7 °F 30.3 in Calm   2 mph 73 % 0 in
21:42 66.6 °F 58.1 °F 30.3 in NW 1 mph 2 mph 74 % 0 in
21:52 66 °F 57.9 °F 30.3 in Calm   2 mph 75 % 0 in
21:57 65.7 °F 57.6 °F 30.3 in NW 1 mph 2 mph 75 % 0 in
22:02 65.5 °F 57.7 °F 30.3 in NW 2 mph 2 mph 76 % 0 in
22:07 65.1 °F 57.4 °F 30.3 in NW 1 mph 3 mph 76 % 0 in
22:12 64.9 °F 57.2 °F 30.3 in NW 1 mph 3 mph 76 % 0 in
22:17 64.8 °F 57.4 °F 30.3 in West 2 mph 3 mph 77 % 0 in
22:22 64.6 °F 57.2 °F 30.3 in WNW 1 mph 3 mph 77 % 0 in
22:32 64 °F 57 °F 30.3 in Calm   3 mph 78 % 0 in
22:37 63.7 °F 56.7 °F 30.3 in Calm   3 mph 78 % 0 in
22:42 63.3 °F 56.3 °F 30.3 in Calm   3 mph 78 % 0 in
22:52 63.1 °F 56.5 °F 30.3 in Calm   2 mph 79 % 0 in
22:57 63 °F 56.3 °F 30.3 in Calm   1 mph 79 % 0 in
23:02 62.6 °F 55.9 °F 30.3 in Calm   1 mph 79 % 0 in
23:12 62.2 °F 55.9 °F 30.3 in Calm     80 % 0 in
23:17 62.2 °F 55.9 °F 30.3 in Calm     80 % 0 in
23:22 62.1 °F 55.8 °F 30.3 in NW 2 mph   80 % 0 in
23:32 62.1 °F 55.8 °F 30.3 in North 1 mph 2 mph 80 % 0 in
23:42 61.9 °F 55.6 °F 30.3 in NW 2 mph 2 mph 80 % 0 in
23:52 61.7 °F 55.4 °F 30.3 in WNW 1 mph 2 mph 80 % 0 in
23:57 61.5 °F 55.2 °F 30.3 in WNW 3 mph 4 mph 80 % 0 in
Meteo18
Compliments of Weather Underground - 4 mb

Script developed by  Jim McMurry - jmcmurry@mwt.net Adapted for the template by  Wim van der Kuil - Leuven-Template.eu

You find our weather info also at:

European Weather Network

Weather Underground

Equipment we use:

Weather-station
Davis Vue

Weather-program
Meteohub

Weather-server
Raspberry PI 2 B+

Provider
1 and 1

Davis Vue

Meteohub

Raspberry PI 2 B+

1 and 1